sensor_id;sensor_type;location;lat;lon;timestamp;P1;durP1;ratioP1;P2;durP2;ratioP2
34982;SDS011;21187;50.976;13.720;2023-11-21T00:01:21;2.65;;;1.00;;
34982;SDS011;21187;50.976;13.720;2023-11-21T00:06:23;2.80;;;1.10;;
34982;SDS011;21187;50.976;13.720;2023-11-21T00:11:25;3.40;;;1.00;;
34982;SDS011;21187;50.976;13.720;2023-11-21T00:16:27;3.05;;;1.13;;
34982;SDS011;21187;50.976;13.720;2023-11-21T00:21:29;2.10;;;0.90;;
34982;SDS011;21187;50.976;13.720;2023-11-21T00:26:31;3.28;;;1.20;;
34982;SDS011;21187;50.976;13.720;2023-11-21T00:31:38;4.28;;;1.23;;
34982;SDS011;21187;50.976;13.720;2023-11-21T00:36:40;4.57;;;1.40;;
34982;SDS011;21187;50.976;13.720;2023-11-21T00:41:42;5.25;;;1.33;;
34982;SDS011;21187;50.976;13.720;2023-11-21T00:46:46;5.32;;;1.17;;
34982;SDS011;21187;50.976;13.720;2023-11-21T00:51:48;8.98;;;1.55;;
34982;SDS011;21187;50.976;13.720;2023-11-21T00:56:50;2.97;;;1.23;;
34982;SDS011;21187;50.976;13.720;2023-11-21T01:01:52;3.65;;;1.52;;
34982;SDS011;21187;50.976;13.720;2023-11-21T01:06:54;3.58;;;1.55;;
34982;SDS011;21187;50.976;13.720;2023-11-21T01:11:56;2.75;;;1.40;;
34982;SDS011;21187;50.976;13.720;2023-11-21T01:16:58;5.00;;;1.55;;
34982;SDS011;21187;50.976;13.720;2023-11-21T01:22:00;5.78;;;1.40;;
34982;SDS011;21187;50.976;13.720;2023-11-21T01:27:02;3.42;;;1.25;;
34982;SDS011;21187;50.976;13.720;2023-11-21T01:32:05;6.95;;;1.70;;
34982;SDS011;21187;50.976;13.720;2023-11-21T01:37:09;4.78;;;1.23;;
34982;SDS011;21187;50.976;13.720;2023-11-21T01:42:13;6.78;;;1.40;;
34982;SDS011;21187;50.976;13.720;2023-11-21T01:47:15;5.90;;;2.20;;
34982;SDS011;21187;50.976;13.720;2023-11-21T01:52:18;5.10;;;1.90;;
34982;SDS011;21187;50.976;13.720;2023-11-21T01:57:21;4.85;;;1.70;;
34982;SDS011;21187;50.976;13.720;2023-11-21T02:02:23;4.22;;;1.70;;
34982;SDS011;21187;50.976;13.720;2023-11-21T02:07:25;5.03;;;1.77;;
34982;SDS011;21187;50.976;13.720;2023-11-21T02:12:27;6.97;;;1.40;;
34982;SDS011;21187;50.976;13.720;2023-11-21T02:17:29;9.80;;;1.92;;
34982;SDS011;21187;50.976;13.720;2023-11-21T02:22:32;7.38;;;1.23;;
34982;SDS011;21187;50.976;13.720;2023-11-21T02:27:37;4.25;;;1.33;;
34982;SDS011;21187;50.976;13.720;2023-11-21T02:32:39;8.25;;;1.58;;
34982;SDS011;21187;50.976;13.720;2023-11-21T02:37:49;5.78;;;1.40;;
34982;SDS011;21187;50.976;13.720;2023-11-21T02:42:51;8.90;;;1.33;;
34982;SDS011;21187;50.976;13.720;2023-11-21T02:47:54;4.68;;;1.30;;
34982;SDS011;21187;50.976;13.720;2023-11-21T02:52:59;7.22;;;1.15;;
34982;SDS011;21187;50.976;13.720;2023-11-21T02:58:02;7.40;;;1.67;;
34982;SDS011;21187;50.976;13.720;2023-11-21T03:03:07;3.55;;;1.17;;
34982;SDS011;21187;50.976;13.720;2023-11-21T03:08:10;3.75;;;1.17;;
34982;SDS011;21187;50.976;13.720;2023-11-21T03:13:12;6.07;;;1.95;;
34982;SDS011;21187;50.976;13.720;2023-11-21T03:18:14;7.80;;;1.30;;
34982;SDS011;21187;50.976;13.720;2023-11-21T03:23:16;3.38;;;1.20;;
34982;SDS011;21187;50.976;13.720;2023-11-21T03:28:17;3.38;;;1.30;;
34982;SDS011;21187;50.976;13.720;2023-11-21T03:33:20;3.85;;;1.33;;
34982;SDS011;21187;50.976;13.720;2023-11-21T03:38:22;3.85;;;1.20;;
34982;SDS011;21187;50.976;13.720;2023-11-21T03:43:24;5.60;;;1.42;;
34982;SDS011;21187;50.976;13.720;2023-11-21T03:48:27;6.15;;;1.95;;
34982;SDS011;21187;50.976;13.720;2023-11-21T03:53:28;8.52;;;1.67;;
34982;SDS011;21187;50.976;13.720;2023-11-21T03:58:30;6.07;;;1.48;;
34982;SDS011;21187;50.976;13.720;2023-11-21T04:03:32;4.22;;;1.20;;
34982;SDS011;21187;50.976;13.720;2023-11-21T04:08:34;5.07;;;1.75;;
34982;SDS011;21187;50.976;13.720;2023-11-21T04:13:36;6.53;;;1.83;;
34982;SDS011;21187;50.976;13.720;2023-11-21T04:18:38;6.53;;;1.42;;
34982;SDS011;21187;50.976;13.720;2023-11-21T04:23:40;8.68;;;1.63;;
34982;SDS011;21187;50.976;13.720;2023-11-21T04:28:43;7.93;;;2.33;;
34982;SDS011;21187;50.976;13.720;2023-11-21T04:33:46;5.13;;;1.90;;
34982;SDS011;21187;50.976;13.720;2023-11-21T04:38:48;7.15;;;2.35;;
34982;SDS011;21187;50.976;13.720;2023-11-21T04:43:50;11.65;;;2.80;;
34982;SDS011;21187;50.976;13.720;2023-11-21T04:48:52;5.82;;;1.92;;
34982;SDS011;21187;50.976;13.720;2023-11-21T04:53:54;4.90;;;2.03;;
34982;SDS011;21187;50.976;13.720;2023-11-21T04:58:55;6.20;;;2.25;;
34982;SDS011;21187;50.976;13.720;2023-11-21T05:03:57;4.90;;;1.80;;
34982;SDS011;21187;50.976;13.720;2023-11-21T05:08:59;9.82;;;2.47;;
34982;SDS011;21187;50.976;13.720;2023-11-21T05:14:02;7.78;;;2.40;;
34982;SDS011;21187;50.976;13.720;2023-11-21T05:19:05;11.90;;;2.90;;
34982;SDS011;21187;50.976;13.720;2023-11-21T05:24:08;9.90;;;2.35;;
34982;SDS011;21187;50.976;13.720;2023-11-21T05:29:10;5.78;;;1.88;;
34982;SDS011;21187;50.976;13.720;2023-11-21T05:34:12;8.80;;;2.47;;
34982;SDS011;21187;50.976;13.720;2023-11-21T05:39:18;7.25;;;2.72;;
34982;SDS011;21187;50.976;13.720;2023-11-21T05:44:21;12.15;;;2.50;;
34982;SDS011;21187;50.976;13.720;2023-11-21T05:49:22;9.98;;;3.40;;
34982;SDS011;21187;50.976;13.720;2023-11-21T05:54:24;7.55;;;2.13;;
34982;SDS011;21187;50.976;13.720;2023-11-21T05:59:27;8.73;;;3.28;;
34982;SDS011;21187;50.976;13.720;2023-11-21T06:04:29;7.72;;;2.55;;
34982;SDS011;21187;50.976;13.720;2023-11-21T06:09:32;7.53;;;2.53;;
34982;SDS011;21187;50.976;13.720;2023-11-21T06:14:34;10.50;;;3.28;;
34982;SDS011;21187;50.976;13.720;2023-11-21T06:19:36;12.85;;;2.83;;
34982;SDS011;21187;50.976;13.720;2023-11-21T06:24:38;10.52;;;2.80;;
34982;SDS011;21187;50.976;13.720;2023-11-21T06:29:42;9.85;;;2.83;;
34982;SDS011;21187;50.976;13.720;2023-11-21T06:34:44;8.02;;;2.88;;
34982;SDS011;21187;50.976;13.720;2023-11-21T06:39:47;10.98;;;3.40;;
34982;SDS011;21187;50.976;13.720;2023-11-21T06:44:49;13.60;;;3.00;;
34982;SDS011;21187;50.976;13.720;2023-11-21T06:49:53;15.07;;;3.45;;
34982;SDS011;21187;50.976;13.720;2023-11-21T06:54:55;14.35;;;3.20;;
34982;SDS011;21187;50.976;13.720;2023-11-21T06:59:57;13.57;;;3.53;;
34982;SDS011;21187;50.976;13.720;2023-11-21T07:04:59;18.38;;;3.35;;
34982;SDS011;21187;50.976;13.720;2023-11-21T07:10:01;14.65;;;3.58;;
34982;SDS011;21187;50.976;13.720;2023-11-21T07:15:04;16.02;;;3.63;;
34982;SDS011;21187;50.976;13.720;2023-11-21T07:20:10;7.55;;;3.00;;
34982;SDS011;21187;50.976;13.720;2023-11-21T07:25:13;10.07;;;3.63;;
34982;SDS011;21187;50.976;13.720;2023-11-21T07:30:15;14.32;;;4.00;;
34982;SDS011;21187;50.976;13.720;2023-11-21T07:35:17;19.98;;;3.78;;
34982;SDS011;21187;50.976;13.720;2023-11-21T07:40:19;18.33;;;4.88;;
34982;SDS011;21187;50.976;13.720;2023-11-21T07:45:21;11.75;;;3.95;;
34982;SDS011;21187;50.976;13.720;2023-11-21T07:50:23;10.50;;;3.60;;
34982;SDS011;21187;50.976;13.720;2023-11-21T07:55:25;15.93;;;4.10;;
34982;SDS011;21187;50.976;13.720;2023-11-21T08:00:28;17.27;;;3.78;;
34982;SDS011;21187;50.976;13.720;2023-11-21T08:05:32;17.27;;;4.22;;
34982;SDS011;21187;50.976;13.720;2023-11-21T08:10:38;16.15;;;4.13;;
34982;SDS011;21187;50.976;13.720;2023-11-21T08:15:40;28.48;;;7.90;;
34982;SDS011;21187;50.976;13.720;2023-11-21T08:20:42;15.45;;;4.82;;
34982;SDS011;21187;50.976;13.720;2023-11-21T08:25:49;20.45;;;5.97;;
34982;SDS011;21187;50.976;13.720;2023-11-21T08:30:51;12.38;;;4.88;;
34982;SDS011;21187;50.976;13.720;2023-11-21T08:35:54;21.17;;;5.53;;
34982;SDS011;21187;50.976;13.720;2023-11-21T08:40:56;14.60;;;4.82;;
34982;SDS011;21187;50.976;13.720;2023-11-21T08:45:58;13.25;;;5.10;;
34982;SDS011;21187;50.976;13.720;2023-11-21T08:51:00;19.67;;;6.10;;
34982;SDS011;21187;50.976;13.720;2023-11-21T08:56:02;17.77;;;5.05;;
34982;SDS011;21187;50.976;13.720;2023-11-21T09:01:05;16.08;;;6.10;;
34982;SDS011;21187;50.976;13.720;2023-11-21T09:06:09;10.63;;;4.13;;
34982;SDS011;21187;50.976;13.720;2023-11-21T09:11:11;11.07;;;4.22;;
34982;SDS011;21187;50.976;13.720;2023-11-21T09:16:14;11.27;;;3.95;;
34982;SDS011;21187;50.976;13.720;2023-11-21T09:21:17;11.18;;;4.38;;
34982;SDS011;21187;50.976;13.720;2023-11-21T09:26:19;11.10;;;3.55;;
34982;SDS011;21187;50.976;13.720;2023-11-21T09:31:21;10.82;;;4.50;;
34982;SDS011;21187;50.976;13.720;2023-11-21T09:36:25;12.43;;;3.55;;
34982;SDS011;21187;50.976;13.720;2023-11-21T09:41:32;5.40;;;2.80;;
34982;SDS011;21187;50.976;13.720;2023-11-21T09:46:42;6.82;;;3.17;;
34982;SDS011;21187;50.976;13.720;2023-11-21T09:51:44;7.63;;;3.22;;
34982;SDS011;21187;50.976;13.720;2023-11-21T09:56:48;4.35;;;2.67;;
34982;SDS011;21187;50.976;13.720;2023-11-21T10:01:51;4.00;;;2.70;;
34982;SDS011;21187;50.976;13.720;2023-11-21T10:06:53;6.63;;;2.85;;
34982;SDS011;21187;50.976;13.720;2023-11-21T10:11:56;5.93;;;2.17;;
34982;SDS011;21187;50.976;13.720;2023-11-21T10:17:02;3.35;;;2.40;;
34982;SDS011;21187;50.976;13.720;2023-11-21T10:22:05;2.42;;;1.67;;
34982;SDS011;21187;50.976;13.720;2023-11-21T10:27:08;4.85;;;2.50;;
34982;SDS011;21187;50.976;13.720;2023-11-21T10:32:11;6.90;;;3.00;;
34982;SDS011;21187;50.976;13.720;2023-11-21T10:37:13;104.75;;;5.75;;
34982;SDS011;21187;50.976;13.720;2023-11-21T10:42:18;30.40;;;4.47;;
34982;SDS011;21187;50.976;13.720;2023-11-21T10:47:22;14.95;;;3.30;;
34982;SDS011;21187;50.976;13.720;2023-11-21T10:52:26;74.93;;;4.43;;
34982;SDS011;21187;50.976;13.720;2023-11-21T10:57:29;154.35;;;6.63;;
34982;SDS011;21187;50.976;13.720;2023-11-21T11:02:32;140.75;;;7.05;;
34982;SDS011;21187;50.976;13.720;2023-11-21T11:07:36;177.82;;;8.93;;
34982;SDS011;21187;50.976;13.720;2023-11-21T11:12:43;580.20;;;18.70;;
34982;SDS011;21187;50.976;13.720;2023-11-21T11:17:48;501.95;;;17.23;;
34982;SDS011;21187;50.976;13.720;2023-11-21T11:22:59;23.10;;;5.60;;
34982;SDS011;21187;50.976;13.720;2023-11-21T11:28:22;12.38;;;5.63;;
34982;SDS011;21187;50.976;13.720;2023-11-21T11:33:43;13.38;;;5.45;;
34982;SDS011;21187;50.976;13.720;2023-11-21T11:38:53;13.40;;;5.85;;
34982;SDS011;21187;50.976;13.720;2023-11-21T11:43:58;14.43;;;5.38;;
34982;SDS011;21187;50.976;13.720;2023-11-21T11:49:04;13.40;;;5.43;;
34982;SDS011;21187;50.976;13.720;2023-11-21T11:54:06;10.43;;;4.97;;
34982;SDS011;21187;50.976;13.720;2023-11-21T11:59:08;11.77;;;5.50;;
34982;SDS011;21187;50.976;13.720;2023-11-21T12:09:18;14.68;;;7.00;;
34982;SDS011;21187;50.976;13.720;2023-11-21T12:14:23;17.92;;;7.25;;
34982;SDS011;21187;50.976;13.720;2023-11-21T12:19:24;18.60;;;8.15;;
34982;SDS011;21187;50.976;13.720;2023-11-21T12:24:27;17.13;;;7.07;;
34982;SDS011;21187;50.976;13.720;2023-11-21T12:29:30;19.67;;;8.20;;
34982;SDS011;21187;50.976;13.720;2023-11-21T12:34:34;18.27;;;8.13;;
34982;SDS011;21187;50.976;13.720;2023-11-21T12:39:36;16.42;;;7.82;;
34982;SDS011;21187;50.976;13.720;2023-11-21T12:44:38;19.90;;;9.13;;
34982;SDS011;21187;50.976;13.720;2023-11-21T12:49:42;26.02;;;8.18;;
34982;SDS011;21187;50.976;13.720;2023-11-21T12:54:46;22.20;;;9.00;;
34982;SDS011;21187;50.976;13.720;2023-11-21T12:59:50;19.25;;;8.35;;
34982;SDS011;21187;50.976;13.720;2023-11-21T13:04:54;18.75;;;7.07;;
34982;SDS011;21187;50.976;13.720;2023-11-21T13:09:59;21.50;;;8.43;;
34982;SDS011;21187;50.976;13.720;2023-11-21T13:15:03;15.35;;;7.07;;
34982;SDS011;21187;50.976;13.720;2023-11-21T13:20:08;18.60;;;7.50;;
34982;SDS011;21187;50.976;13.720;2023-11-21T13:25:17;13.90;;;6.53;;
34982;SDS011;21187;50.976;13.720;2023-11-21T13:30:22;15.45;;;6.38;;
34982;SDS011;21187;50.976;13.720;2023-11-21T13:35:28;12.38;;;6.35;;
34982;SDS011;21187;50.976;13.720;2023-11-21T13:40:40;15.32;;;6.00;;
34982;SDS011;21187;50.976;13.720;2023-11-21T13:45:48;11.88;;;5.75;;
34982;SDS011;21187;50.976;13.720;2023-11-21T13:51:00;10.95;;;5.68;;
34982;SDS011;21187;50.976;13.720;2023-11-21T13:56:12;16.15;;;6.53;;
34982;SDS011;21187;50.976;13.720;2023-11-21T14:01:18;13.35;;;6.78;;
34982;SDS011;21187;50.976;13.720;2023-11-21T14:06:32;28.60;;;7.75;;
34982;SDS011;21187;50.976;13.720;2023-11-21T14:11:41;61.28;;;10.48;;
34982;SDS011;21187;50.976;13.720;2023-11-21T14:16:48;21.00;;;8.90;;
34982;SDS011;21187;50.976;13.720;2023-11-21T14:21:51;23.67;;;9.18;;
34982;SDS011;21187;50.976;13.720;2023-11-21T14:26:54;13.65;;;6.45;;
34982;SDS011;21187;50.976;13.720;2023-11-21T14:31:56;13.60;;;6.68;;
34982;SDS011;21187;50.976;13.720;2023-11-21T14:36:59;10.55;;;4.45;;
34982;SDS011;21187;50.976;13.720;2023-11-21T14:42:04;11.35;;;5.20;;
34982;SDS011;21187;50.976;13.720;2023-11-21T14:47:08;13.45;;;5.88;;
34982;SDS011;21187;50.976;13.720;2023-11-21T14:52:17;12.30;;;3.80;;
34982;SDS011;21187;50.976;13.720;2023-11-21T14:57:34;9.02;;;4.15;;
34982;SDS011;21187;50.976;13.720;2023-11-21T15:02:37;8.35;;;3.92;;
34982;SDS011;21187;50.976;13.720;2023-11-21T15:07:51;9.65;;;4.35;;
34982;SDS011;21187;50.976;13.720;2023-11-21T15:12:57;6.88;;;3.88;;
34982;SDS011;21187;50.976;13.720;2023-11-21T15:17:59;9.75;;;4.28;;
34982;SDS011;21187;50.976;13.720;2023-11-21T15:23:01;12.10;;;5.78;;
34982;SDS011;21187;50.976;13.720;2023-11-21T15:28:05;12.48;;;6.45;;
34982;SDS011;21187;50.976;13.720;2023-11-21T15:33:07;13.18;;;6.28;;
34982;SDS011;21187;50.976;13.720;2023-11-21T15:38:10;15.43;;;6.13;;
34982;SDS011;21187;50.976;13.720;2023-11-21T15:43:13;12.80;;;5.20;;
34982;SDS011;21187;50.976;13.720;2023-11-21T15:48:15;14.13;;;6.95;;
34982;SDS011;21187;50.976;13.720;2023-11-21T15:53:18;12.55;;;5.43;;
34982;SDS011;21187;50.976;13.720;2023-11-21T15:58:20;15.95;;;5.95;;
34982;SDS011;21187;50.976;13.720;2023-11-21T16:03:21;16.27;;;6.00;;
34982;SDS011;21187;50.976;13.720;2023-11-21T16:08:23;10.30;;;4.60;;
34982;SDS011;21187;50.976;13.720;2023-11-21T16:13:25;9.93;;;4.50;;
34982;SDS011;21187;50.976;13.720;2023-11-21T16:18:27;16.05;;;5.20;;
34982;SDS011;21187;50.976;13.720;2023-11-21T16:23:29;6.93;;;4.10;;
34982;SDS011;21187;50.976;13.720;2023-11-21T16:28:32;8.25;;;4.30;;
34982;SDS011;21187;50.976;13.720;2023-11-21T16:33:34;9.63;;;4.68;;
34982;SDS011;21187;50.976;13.720;2023-11-21T16:38:37;6.53;;;4.10;;
34982;SDS011;21187;50.976;13.720;2023-11-21T16:43:39;9.27;;;4.57;;
34982;SDS011;21187;50.976;13.720;2023-11-21T16:48:41;7.85;;;3.80;;
34982;SDS011;21187;50.976;13.720;2023-11-21T16:53:43;4.93;;;3.20;;
34982;SDS011;21187;50.976;13.720;2023-11-21T16:58:45;12.18;;;4.80;;
34982;SDS011;21187;50.976;13.720;2023-11-21T17:03:47;5.85;;;3.30;;
34982;SDS011;21187;50.976;13.720;2023-11-21T17:08:50;9.10;;;4.60;;
34982;SDS011;21187;50.976;13.720;2023-11-21T17:13:53;4.50;;;2.70;;
34982;SDS011;21187;50.976;13.720;2023-11-21T17:18:55;5.03;;;2.83;;
34982;SDS011;21187;50.976;13.720;2023-11-21T17:23:57;2.47;;;1.70;;
34982;SDS011;21187;50.976;13.720;2023-11-21T17:28:59;2.22;;;1.40;;
34982;SDS011;21187;50.976;13.720;2023-11-21T17:34:02;1.95;;;1.30;;
34982;SDS011;21187;50.976;13.720;2023-11-21T17:39:04;2.35;;;1.63;;
34982;SDS011;21187;50.976;13.720;2023-11-21T17:44:12;2.58;;;1.67;;
34982;SDS011;21187;50.976;13.720;2023-11-21T17:49:14;4.82;;;1.75;;
34982;SDS011;21187;50.976;13.720;2023-11-21T17:54:16;3.20;;;2.00;;
34982;SDS011;21187;50.976;13.720;2023-11-21T17:59:17;9.18;;;3.60;;
34982;SDS011;21187;50.976;13.720;2023-11-21T18:04:19;8.30;;;4.40;;
34982;SDS011;21187;50.976;13.720;2023-11-21T18:09:24;3.05;;;2.28;;
34982;SDS011;21187;50.976;13.720;2023-11-21T18:14:26;3.47;;;2.28;;
34982;SDS011;21187;50.976;13.720;2023-11-21T18:19:29;5.20;;;3.03;;
34982;SDS011;21187;50.976;13.720;2023-11-21T18:24:32;7.55;;;2.75;;
34982;SDS011;21187;50.976;13.720;2023-11-21T18:29:34;3.92;;;2.55;;
34982;SDS011;21187;50.976;13.720;2023-11-21T18:34:40;5.32;;;2.20;;
34982;SDS011;21187;50.976;13.720;2023-11-21T18:39:43;4.53;;;2.85;;
34982;SDS011;21187;50.976;13.720;2023-11-21T18:44:46;4.20;;;2.53;;
34982;SDS011;21187;50.976;13.720;2023-11-21T18:49:59;5.65;;;2.75;;
34982;SDS011;21187;50.976;13.720;2023-11-21T18:55:01;4.13;;;1.70;;
34982;SDS011;21187;50.976;13.720;2023-11-21T19:00:06;3.20;;;2.30;;
34982;SDS011;21187;50.976;13.720;2023-11-21T19:05:11;4.35;;;2.60;;
34982;SDS011;21187;50.976;13.720;2023-11-21T19:10:13;6.35;;;3.72;;
34982;SDS011;21187;50.976;13.720;2023-11-21T19:15:15;6.38;;;2.88;;
34982;SDS011;21187;50.976;13.720;2023-11-21T19:20:18;3.28;;;2.30;;
34982;SDS011;21187;50.976;13.720;2023-11-21T19:25:20;4.93;;;2.75;;
34982;SDS011;21187;50.976;13.720;2023-11-21T19:30:22;3.53;;;2.10;;
34982;SDS011;21187;50.976;13.720;2023-11-21T19:35:25;6.22;;;2.75;;
34982;SDS011;21187;50.976;13.720;2023-11-21T19:40:29;10.60;;;7.70;;
34982;SDS011;21187;50.976;13.720;2023-11-21T19:45:32;73.63;;;36.88;;
34982;SDS011;21187;50.976;13.720;2023-11-21T19:50:35;21.48;;;11.73;;
34982;SDS011;21187;50.976;13.720;2023-11-21T19:55:37;16.88;;;8.02;;
34982;SDS011;21187;50.976;13.720;2023-11-21T20:00:39;4.57;;;2.88;;
34982;SDS011;21187;50.976;13.720;2023-11-21T20:05:41;4.60;;;3.15;;
34982;SDS011;21187;50.976;13.720;2023-11-21T20:10:43;3.80;;;2.22;;
34982;SDS011;21187;50.976;13.720;2023-11-21T20:15:47;3.95;;;2.22;;
34982;SDS011;21187;50.976;13.720;2023-11-21T20:20:49;6.93;;;2.60;;
34982;SDS011;21187;50.976;13.720;2023-11-21T20:25:52;5.80;;;3.50;;
34982;SDS011;21187;50.976;13.720;2023-11-21T20:30:59;4.93;;;3.13;;
34982;SDS011;21187;50.976;13.720;2023-11-21T20:36:01;6.03;;;2.58;;
34982;SDS011;21187;50.976;13.720;2023-11-21T20:41:03;5.60;;;3.17;;
34982;SDS011;21187;50.976;13.720;2023-11-21T20:46:06;6.93;;;2.85;;
34982;SDS011;21187;50.976;13.720;2023-11-21T20:51:08;3.17;;;2.28;;
34982;SDS011;21187;50.976;13.720;2023-11-21T20:56:10;3.00;;;2.35;;
34982;SDS011;21187;50.976;13.720;2023-11-21T21:01:12;5.90;;;2.97;;
34982;SDS011;21187;50.976;13.720;2023-11-21T21:06:15;3.97;;;2.90;;
34982;SDS011;21187;50.976;13.720;2023-11-21T21:11:18;4.18;;;2.60;;
34982;SDS011;21187;50.976;13.720;2023-11-21T21:16:23;4.47;;;3.47;;
34982;SDS011;21187;50.976;13.720;2023-11-21T21:21:31;5.47;;;3.28;;
34982;SDS011;21187;50.976;13.720;2023-11-21T21:26:34;5.38;;;3.13;;
34982;SDS011;21187;50.976;13.720;2023-11-21T21:31:36;4.03;;;3.00;;
34982;SDS011;21187;50.976;13.720;2023-11-21T21:36:38;4.40;;;2.70;;
34982;SDS011;21187;50.976;13.720;2023-11-21T21:41:43;5.05;;;3.10;;
34982;SDS011;21187;50.976;13.720;2023-11-21T21:46:45;7.65;;;4.07;;
34982;SDS011;21187;50.976;13.720;2023-11-21T21:51:47;11.25;;;4.38;;
34982;SDS011;21187;50.976;13.720;2023-11-21T21:56:49;10.50;;;4.25;;
34982;SDS011;21187;50.976;13.720;2023-11-21T22:01:51;13.40;;;6.22;;
34982;SDS011;21187;50.976;13.720;2023-11-21T22:06:54;9.32;;;5.18;;
34982;SDS011;21187;50.976;13.720;2023-11-21T22:11:57;10.57;;;6.07;;
34982;SDS011;21187;50.976;13.720;2023-11-21T22:16:59;10.25;;;5.80;;
34982;SDS011;21187;50.976;13.720;2023-11-21T22:22:01;10.80;;;6.15;;
34982;SDS011;21187;50.976;13.720;2023-11-21T22:27:03;12.57;;;5.80;;
34982;SDS011;21187;50.976;13.720;2023-11-21T22:32:05;11.50;;;6.45;;
34982;SDS011;21187;50.976;13.720;2023-11-21T22:37:07;11.95;;;6.40;;
34982;SDS011;21187;50.976;13.720;2023-11-21T22:42:11;12.57;;;6.00;;
34982;SDS011;21187;50.976;13.720;2023-11-21T22:47:13;13.60;;;5.93;;
34982;SDS011;21187;50.976;13.720;2023-11-21T22:52:15;10.65;;;5.97;;
34982;SDS011;21187;50.976;13.720;2023-11-21T22:57:17;12.60;;;6.65;;
34982;SDS011;21187;50.976;13.720;2023-11-21T23:02:19;15.10;;;7.35;;
34982;SDS011;21187;50.976;13.720;2023-11-21T23:07:21;16.25;;;7.90;;
34982;SDS011;21187;50.976;13.720;2023-11-21T23:12:23;19.98;;;7.43;;
34982;SDS011;21187;50.976;13.720;2023-11-21T23:17:25;12.45;;;7.03;;
34982;SDS011;21187;50.976;13.720;2023-11-21T23:22:29;14.10;;;8.30;;
34982;SDS011;21187;50.976;13.720;2023-11-21T23:27:33;14.18;;;6.95;;
34982;SDS011;21187;50.976;13.720;2023-11-21T23:32:35;13.63;;;6.97;;
34982;SDS011;21187;50.976;13.720;2023-11-21T23:37:38;12.27;;;7.13;;
34982;SDS011;21187;50.976;13.720;2023-11-21T23:42:41;13.63;;;7.05;;
34982;SDS011;21187;50.976;13.720;2023-11-21T23:47:43;14.75;;;7.10;;
34982;SDS011;21187;50.976;13.720;2023-11-21T23:52:45;16.00;;;8.27;;
34982;SDS011;21187;50.976;13.720;2023-11-21T23:57:47;13.23;;;7.60;;
